createdAt,value
2023-04-27T00:00:50.203Z,72.1
2023-04-27T00:01:51.651Z,72.1
2023-04-27T00:02:53.533Z,72.1
2023-04-27T00:03:55.856Z,72.1
2023-04-27T00:04:57.805Z,72.1
2023-04-27T00:05:59.345Z,72.2
2023-04-27T00:07:00.501Z,72.2
2023-04-27T00:08:01.666Z,72.2
2023-04-27T00:09:02.827Z,72.3
2023-04-27T00:10:04.015Z,72.3
2023-04-27T00:11:05.189Z,72.3
2023-04-27T00:12:06.358Z,72.4
2023-04-27T00:13:07.519Z,72.4
2023-04-27T00:14:08.693Z,72.4
2023-04-27T00:15:09.859Z,72.5
2023-04-27T00:16:11.156Z,72.5
2023-04-27T00:17:12.327Z,72.6
2023-04-27T00:18:13.558Z,72.6
2023-04-27T00:19:16.034Z,72.7
2023-04-27T00:20:17.361Z,72.7
2023-04-27T00:21:18.531Z,72.8
2023-04-27T00:22:19.692Z,72.8
2023-04-27T00:23:20.863Z,72.9
2023-04-27T00:24:22.023Z,72.9
2023-04-27T00:25:23.211Z,73
2023-04-27T00:26:24.357Z,73
2023-04-27T00:27:25.521Z,73
2023-04-27T00:28:26.682Z,73.1
2023-04-27T00:29:27.851Z,73.1
2023-04-27T00:30:29.021Z,73.2
2023-04-27T00:31:30.373Z,73.2
2023-04-27T00:32:31.751Z,73.2
2023-04-27T00:33:32.899Z,73.3
2023-04-27T00:34:34.060Z,73.3
2023-04-27T00:35:35.226Z,73.3
2023-04-27T00:36:36.415Z,73.4
2023-04-27T00:37:37.572Z,73.4
2023-04-27T00:38:38.741Z,73.4
2023-04-27T00:39:39.891Z,73.4
2023-04-27T00:40:41.060Z,73.5
2023-04-27T00:41:42.228Z,73.5
2023-04-27T00:42:43.393Z,73.5
2023-04-27T00:43:44.555Z,73.6
2023-04-27T00:44:45.722Z,73.6
2023-04-27T00:45:46.977Z,73.6
2023-04-27T00:46:48.123Z,73.6
2023-04-27T00:47:49.400Z,73.7
2023-04-27T00:48:50.611Z,73.7
2023-04-27T00:49:51.781Z,73.7
2023-04-27T00:50:52.935Z,73.7
2023-04-27T00:51:54.103Z,73.8
2023-04-27T00:52:55.268Z,73.8
2023-04-27T00:53:56.434Z,73.8
2023-04-27T00:54:57.644Z,73.8
2023-04-27T00:55:58.823Z,73.9
2023-04-27T00:57:00.004Z,73.9
2023-04-27T00:58:01.169Z,73.9
2023-04-27T00:59:02.334Z,73.9
2023-04-27T01:00:03.508Z,73.9
2023-04-27T01:01:04.953Z,73.9
2023-04-27T01:02:06.330Z,73.9
2023-04-27T01:03:08.092Z,74
2023-04-27T01:04:10.256Z,74
2023-04-27T01:05:11.742Z,74
2023-04-27T01:06:12.903Z,74
2023-04-27T01:07:14.068Z,74
2023-04-27T01:08:15.981Z,74.1
2023-04-27T01:09:17.396Z,74.1
2023-04-27T01:10:18.634Z,74.1
2023-04-27T01:11:20.075Z,74.1
2023-04-27T01:12:21.237Z,74.1
2023-04-27T01:13:22.408Z,74.1
2023-04-27T01:14:23.569Z,74.1
2023-04-27T01:15:24.732Z,74.1
2023-04-27T01:16:25.982Z,74.1
2023-04-27T01:17:27.175Z,74.1
2023-04-27T01:18:28.352Z,74.1
2023-04-27T01:19:29.495Z,74.1
2023-04-27T01:20:30.705Z,74.1
2023-04-27T01:21:31.878Z,74.1
2023-04-27T01:22:33.042Z,74.1
2023-04-27T01:23:34.217Z,74.1
2023-04-27T01:24:35.372Z,74.1
2023-04-27T01:25:36.536Z,74.2
2023-04-27T01:26:37.698Z,74.2
2023-04-27T01:27:38.891Z,74.2
2023-04-27T01:28:40.055Z,74.2
2023-04-27T01:29:42.140Z,74.2
2023-04-27T01:30:43.451Z,74.2
2023-04-27T01:31:44.979Z,74.2
2023-04-27T01:32:46.344Z,74.2
2023-04-27T01:33:47.518Z,74.2
2023-04-27T01:34:48.662Z,74.2
2023-04-27T01:35:50.787Z,74.2
2023-04-27T01:36:52.507Z,74.2
2023-04-27T01:37:53.674Z,74.2
2023-04-27T01:38:54.837Z,74.2
2023-04-27T01:39:56.009Z,74.2
2023-04-27T01:40:57.170Z,74.3
2023-04-27T01:41:59.558Z,74.3
2023-04-27T01:43:00.687Z,74.3
2023-04-27T01:44:01.855Z,74.3
2023-04-27T01:45:03.022Z,74.3
2023-04-27T01:46:04.246Z,74.3
2023-04-27T01:47:05.411Z,74.3
2023-04-27T01:48:06.647Z,74.3
2023-04-27T01:49:07.843Z,74.3
2023-04-27T01:50:08.987Z,74.3
2023-04-27T01:51:10.152Z,74.3
2023-04-27T01:52:11.320Z,74.3
2023-04-27T01:53:12.488Z,74.3
2023-04-27T01:54:13.652Z,74.3
2023-04-27T01:55:14.833Z,74.3
2023-04-27T01:56:15.979Z,74.3
2023-04-27T01:57:17.147Z,74.3
2023-04-27T01:58:18.313Z,74.3
2023-04-27T01:59:19.484Z,74.3
2023-04-27T02:00:20.657Z,74.3
2023-04-27T02:01:21.951Z,74.4
2023-04-27T02:02:23.814Z,74.4
2023-04-27T02:03:25.760Z,74.4
2023-04-27T02:04:27.734Z,74.4
2023-04-27T02:05:28.966Z,74.5
2023-04-27T02:06:30.129Z,74.5
2023-04-27T02:07:31.296Z,74.5
2023-04-27T02:08:32.475Z,74.5
2023-04-27T02:09:33.628Z,74.5
2023-04-27T02:10:34.794Z,74.5
2023-04-27T02:11:35.957Z,74.6
2023-04-27T02:12:37.130Z,74.6
2023-04-27T02:13:38.373Z,74.6
2023-04-27T02:14:39.531Z,74.6
2023-04-27T02:15:40.810Z,74.7
2023-04-27T02:16:42.063Z,74.7
2023-04-27T02:17:43.285Z,74.7
2023-04-27T02:18:44.473Z,74.7
2023-04-27T02:19:45.667Z,74.8
2023-04-27T02:20:46.806Z,74.8
2023-04-27T02:21:47.971Z,74.8
2023-04-27T02:22:49.170Z,74.9
2023-04-27T02:23:50.459Z,74.9
2023-04-27T02:24:51.610Z,74.9
2023-04-27T02:25:52.765Z,74.9
2023-04-27T02:26:53.929Z,75
2023-04-27T02:27:56.195Z,75
2023-04-27T02:28:58.851Z,75
2023-04-27T02:30:01.416Z,75.1
2023-04-27T02:31:03.202Z,75.1
2023-04-27T02:32:04.473Z,75.1
2023-04-27T02:33:05.683Z,75.1
2023-04-27T02:34:06.835Z,75.1
2023-04-27T02:35:08.024Z,75.2
2023-04-27T02:36:09.177Z,75.2
2023-04-27T02:37:10.339Z,75.2
2023-04-27T02:38:11.505Z,75.2
2023-04-27T02:39:13.832Z,75.2
2023-04-27T02:40:15.176Z,75.2
2023-04-27T02:41:16.343Z,75.3
2023-04-27T02:42:17.511Z,75.3
2023-04-27T02:43:18.677Z,75.3
2023-04-27T02:44:19.842Z,75.3
2023-04-27T02:45:21.021Z,75.3
2023-04-27T02:46:22.265Z,75.4
2023-04-27T02:47:23.414Z,75.4
2023-04-27T02:48:24.574Z,75.4
2023-04-27T02:49:25.736Z,75.4
2023-04-27T02:50:27.139Z,75.4
2023-04-27T02:51:28.299Z,75.5
2023-04-27T02:52:29.459Z,75.5
2023-04-27T02:53:30.644Z,75.5
2023-04-27T02:54:31.789Z,75.5
2023-04-27T02:55:32.961Z,75.6
2023-04-27T02:56:34.128Z,75.6
2023-04-27T02:57:35.295Z,75.6
2023-04-27T02:58:36.458Z,75.6
2023-04-27T02:59:37.632Z,75.7
2023-04-27T03:00:38.787Z,75.7
2023-04-27T03:01:40.116Z,75.7
2023-04-27T03:02:41.953Z,75.7
2023-04-27T03:03:43.802Z,75.8
2023-04-27T03:04:45.526Z,75.8
2023-04-27T03:05:46.816Z,75.8
2023-04-27T03:06:47.958Z,75.9
2023-04-27T03:07:49.122Z,75.9
2023-04-27T03:08:50.285Z,75.9
2023-04-27T03:09:51.454Z,75.9
2023-04-27T03:10:52.619Z,76
2023-04-27T03:11:53.792Z,76
2023-04-27T03:12:54.949Z,76
2023-04-27T03:13:56.124Z,76
2023-04-27T03:14:57.281Z,76
2023-04-27T03:15:58.581Z,76.1
2023-04-27T03:16:59.714Z,76.1
2023-04-27T03:18:01.119Z,76.1
2023-04-27T03:19:02.270Z,76.1
2023-04-27T03:20:03.430Z,76.1
2023-04-27T03:21:04.764Z,76.1
2023-04-27T03:22:06.001Z,76.2
2023-04-27T03:23:07.158Z,76.2
2023-04-27T03:24:08.325Z,76.2
2023-04-27T03:25:09.487Z,76.2
2023-04-27T03:26:10.652Z,76.2
2023-04-27T03:27:11.824Z,76.2
2023-04-27T03:28:12.985Z,76.2
2023-04-27T03:29:15.073Z,76.2
2023-04-27T03:30:16.347Z,76.2
2023-04-27T03:31:17.749Z,76.2
2023-04-27T03:32:18.898Z,76.2
2023-04-27T03:33:20.068Z,76.3
2023-04-27T03:34:21.241Z,76.3
2023-04-27T03:35:22.423Z,76.3
2023-04-27T03:36:23.724Z,76.3
2023-04-27T03:37:24.860Z,76.3
2023-04-27T03:38:26.022Z,76.3
2023-04-27T03:39:27.192Z,76.3
2023-04-27T03:40:28.352Z,76.3
2023-04-27T03:41:29.520Z,76.3
2023-04-27T03:42:30.690Z,76.3
2023-04-27T03:43:31.862Z,76.3
2023-04-27T03:44:33.027Z,76.4
2023-04-27T03:45:34.192Z,76.4
2023-04-27T03:46:35.750Z,76.4
2023-04-27T03:47:36.953Z,76.4
2023-04-27T03:48:38.093Z,76.4
2023-04-27T03:49:39.626Z,76.4
2023-04-27T03:50:40.793Z,76.4
2023-04-27T03:51:41.981Z,76.4
2023-04-27T03:52:43.118Z,76.4
2023-04-27T03:53:44.281Z,76.4
2023-04-27T03:54:45.453Z,76.4
2023-04-27T03:55:46.621Z,76.4
2023-04-27T03:56:47.797Z,76.4
2023-04-27T03:57:48.956Z,76.4
2023-04-27T03:58:50.120Z,76.4
2023-04-27T03:59:51.284Z,76.4
2023-04-27T04:00:52.449Z,76.4
2023-04-27T04:01:53.674Z,76.4
2023-04-27T04:02:55.466Z,76.4
2023-04-27T04:03:57.396Z,76.4
2023-04-27T04:04:58.975Z,76.5
2023-04-27T04:06:00.134Z,76.5
2023-04-27T04:07:01.311Z,76.5
2023-04-27T04:08:02.466Z,76.5
2023-04-27T04:09:03.621Z,76.5
2023-04-27T04:10:04.787Z,76.5
2023-04-27T04:11:05.956Z,76.5
2023-04-27T04:12:07.121Z,76.5
2023-04-27T04:13:08.288Z,76.5
2023-04-27T04:14:09.452Z,76.5
2023-04-27T04:15:10.618Z,76.5
2023-04-27T04:16:11.851Z,76.5
2023-04-27T04:17:13.014Z,76.5
2023-04-27T04:18:14.178Z,76.5
2023-04-27T04:19:16.469Z,76.5
2023-04-27T04:20:17.739Z,76.5
2023-04-27T04:21:18.888Z,76.5
2023-04-27T04:22:20.208Z,76.5
2023-04-27T04:23:21.478Z,76.5
2023-04-27T04:24:22.603Z,76.5
2023-04-27T04:25:23.764Z,76.5
2023-04-27T04:26:24.926Z,76.5
2023-04-27T04:27:26.150Z,76.5
2023-04-27T04:28:27.328Z,76.5
2023-04-27T04:29:28.501Z,76.5
2023-04-27T04:30:29.657Z,76.5
2023-04-27T04:31:30.896Z,76.5
2023-04-27T04:32:32.276Z,76.5
2023-04-27T04:33:33.432Z,76.5
2023-04-27T04:34:34.589Z,76.5
2023-04-27T04:35:35.757Z,76.5
2023-04-27T04:36:36.922Z,76.5
2023-04-27T04:37:38.192Z,76.5
2023-04-27T04:38:39.333Z,76.5
2023-04-27T04:39:40.551Z,76.5
2023-04-27T04:40:44.505Z,76.5
2023-04-27T04:41:46.961Z,76.5
2023-04-27T04:42:48.119Z,76.5
2023-04-27T04:43:49.297Z,76.5
2023-04-27T04:44:50.452Z,76.5
2023-04-27T04:45:51.618Z,76.6
2023-04-27T04:46:52.859Z,76.6
2023-04-27T04:47:54.053Z,76.5
2023-04-27T04:48:55.700Z,76.5
2023-04-27T04:49:56.873Z,76.5
2023-04-27T04:50:58.051Z,76.4
2023-04-27T04:51:59.210Z,76.4
2023-04-27T04:53:00.402Z,76.4
2023-04-27T04:54:02.806Z,76.3
2023-04-27T04:55:03.967Z,76.3
2023-04-27T04:56:05.135Z,76.3
2023-04-27T04:57:06.296Z,76.2
2023-04-27T04:58:07.476Z,76.2
2023-04-27T04:59:08.634Z,76.2
2023-04-27T05:00:09.804Z,76.1
2023-04-27T05:01:11.009Z,76.1
2023-04-27T05:02:12.177Z,76.1
2023-04-27T05:03:13.907Z,76
2023-04-27T05:04:15.704Z,76
2023-04-27T05:05:17.041Z,76
2023-04-27T05:06:18.209Z,75.9
2023-04-27T05:07:25.461Z,75.9
2023-04-27T05:08:26.652Z,75.9
2023-04-27T05:09:27.807Z,75.9
2023-04-27T05:10:28.961Z,75.8
2023-04-27T05:11:30.121Z,75.8
2023-04-27T05:12:31.286Z,75.8
2023-04-27T05:13:32.471Z,75.7
2023-04-27T05:14:33.624Z,75.7
2023-04-27T05:15:34.786Z,75.6
2023-04-27T05:16:36.315Z,75.6
2023-04-27T05:17:37.614Z,75.6
2023-04-27T05:18:38.788Z,75.5
2023-04-27T05:19:39.958Z,75.5
2023-04-27T05:20:41.124Z,75.6
2023-04-27T05:21:42.292Z,75.5
2023-04-27T05:22:43.464Z,75.5
2023-04-27T05:23:44.643Z,75.5
2023-04-27T05:24:45.790Z,75.5
2023-04-27T05:25:46.959Z,75.5
2023-04-27T05:26:48.125Z,75.5
2023-04-27T05:27:49.299Z,75.5
2023-04-27T05:28:50.453Z,75.5
2023-04-27T05:29:51.997Z,75.5
2023-04-27T05:30:55.368Z,75.5
2023-04-27T05:31:56.673Z,75.5
2023-04-27T05:32:57.866Z,75.5
2023-04-27T05:33:59.028Z,75.6
2023-04-27T05:35:00.266Z,75.6
2023-04-27T05:36:01.565Z,75.6
2023-04-27T05:37:02.710Z,75.6
2023-04-27T05:38:03.876Z,75.6
2023-04-27T05:39:05.183Z,75.6
2023-04-27T05:40:06.817Z,75.6
2023-04-27T05:41:08.054Z,75.6
2023-04-27T05:42:09.185Z,75.6
2023-04-27T05:43:10.349Z,75.6
2023-04-27T05:44:11.516Z,75.6
2023-04-27T05:45:12.678Z,75.5
2023-04-27T05:46:13.892Z,75.5
2023-04-27T05:47:15.073Z,75.5
2023-04-27T05:48:16.388Z,75.5
2023-04-27T05:49:17.522Z,75.5
2023-04-27T05:50:18.689Z,75.5
2023-04-27T05:51:20.093Z,75.5
2023-04-27T05:52:21.314Z,75.5
2023-04-27T05:53:22.465Z,75.5
2023-04-27T05:54:23.752Z,75.5
2023-04-27T05:55:25.131Z,75.5
2023-04-27T05:56:26.288Z,75.5
2023-04-27T05:57:27.456Z,75.5
2023-04-27T05:58:28.618Z,75.5
2023-04-27T05:59:29.798Z,75.4
2023-04-27T06:00:30.958Z,75.3
2023-04-27T06:01:32.141Z,75.3
2023-04-27T06:02:36.321Z,75.2
2023-04-27T06:03:38.090Z,75.2
2023-04-27T06:04:39.580Z,75.2
2023-04-27T06:05:40.868Z,75.1
2023-04-27T06:06:42.031Z,75.1
2023-04-27T06:07:43.206Z,75
2023-04-27T06:08:44.359Z,75
2023-04-27T06:09:45.554Z,74.9
2023-04-27T06:10:49.526Z,74.9
2023-04-27T06:11:50.694Z,74.8
2023-04-27T06:12:51.857Z,74.8
2023-04-27T06:13:53.021Z,74.7
2023-04-27T06:14:54.184Z,74.7
2023-04-27T06:15:55.415Z,74.6
2023-04-27T06:16:56.556Z,74.6
2023-04-27T06:17:57.874Z,74.6
2023-04-27T06:18:59.037Z,74.5
2023-04-27T06:20:00.198Z,74.5
2023-04-27T06:21:01.367Z,74.5
2023-04-27T06:22:02.535Z,74.5
2023-04-27T06:23:03.719Z,74.5
2023-04-27T06:24:04.879Z,74.5
2023-04-27T06:25:06.093Z,74.4
2023-04-27T06:26:07.243Z,74.4
2023-04-27T06:27:08.403Z,74.3
2023-04-27T06:28:09.567Z,74.3
2023-04-27T06:29:10.732Z,74.2
2023-04-27T06:30:11.902Z,74.1
2023-04-27T06:31:13.138Z,74
2023-04-27T06:32:14.274Z,74
2023-04-27T06:33:15.596Z,73.9
2023-04-27T06:34:16.770Z,73.9
2023-04-27T06:35:17.945Z,73.8
2023-04-27T06:36:19.100Z,73.7
2023-04-27T06:37:20.271Z,73.7
2023-04-27T06:38:21.433Z,73.7
2023-04-27T06:39:22.599Z,73.7
2023-04-27T06:40:23.788Z,73.8
2023-04-27T06:41:24.944Z,73.7
2023-04-27T06:42:26.096Z,73.6
2023-04-27T06:43:27.639Z,73.5
2023-04-27T06:44:28.810Z,73.4
2023-04-27T06:45:29.979Z,73.4
2023-04-27T06:46:31.228Z,73.3
2023-04-27T06:47:32.395Z,73.2
2023-04-27T06:48:33.567Z,73.2
2023-04-27T06:49:34.730Z,73.2
2023-04-27T06:50:35.900Z,73.1
2023-04-27T06:51:37.059Z,73.1
2023-04-27T06:52:38.230Z,73
2023-04-27T06:53:39.395Z,73
2023-04-27T06:54:40.566Z,72.9
2023-04-27T06:55:48.375Z,72.8
2023-04-27T06:56:49.814Z,72.7
2023-04-27T06:57:50.987Z,72.6
2023-04-27T06:58:52.140Z,72.5
2023-04-27T06:59:53.316Z,72.4
2023-04-27T07:00:54.473Z,72.3
2023-04-27T07:01:55.905Z,72.3
2023-04-27T07:02:57.272Z,72.3
2023-04-27T07:03:58.846Z,72.2
2023-04-27T07:05:00.605Z,72.1
2023-04-27T07:06:01.910Z,72
2023-04-27T07:07:03.072Z,71.9
2023-04-27T07:08:09.539Z,71.7
2023-04-27T07:09:28.119Z,71.6
2023-04-27T07:10:29.388Z,71.5
2023-04-27T07:11:30.696Z,71.4
2023-04-27T07:12:31.818Z,71.3
2023-04-27T07:13:33.020Z,71.1
2023-04-27T07:14:34.170Z,71
2023-04-27T07:15:35.324Z,70.8
2023-04-27T07:16:36.655Z,70.7
2023-04-27T07:17:38.035Z,70.5
2023-04-27T07:18:40.984Z,70.4
2023-04-27T07:19:43.265Z,70.2
2023-04-27T07:20:44.429Z,70.1
2023-04-27T07:21:45.616Z,69.9
2023-04-27T07:22:46.788Z,69.8
2023-04-27T07:23:47.954Z,69.6
2023-04-27T07:24:49.121Z,69.5
2023-04-27T07:25:50.306Z,69.3
2023-04-27T07:26:51.484Z,69.2
2023-04-27T07:27:52.730Z,69
2023-04-27T07:28:53.889Z,68.8
2023-04-27T07:29:55.056Z,68.6
2023-04-27T07:30:56.234Z,68.3
2023-04-27T07:31:57.476Z,68.1
2023-04-27T07:32:59.311Z,68
2023-04-27T07:34:00.485Z,67.9
2023-04-27T07:35:01.666Z,67.6
2023-04-27T07:36:02.827Z,67.9
2023-04-27T07:37:03.994Z,67.7
2023-04-27T07:38:05.174Z,67.2
2023-04-27T07:39:06.326Z,66.9
2023-04-27T07:40:07.485Z,66.6
2023-04-27T07:41:08.653Z,66.3
2023-04-27T07:42:09.839Z,66.1
2023-04-27T07:43:11.120Z,65.9
2023-04-27T07:44:12.282Z,65.6
2023-04-27T07:45:13.438Z,65.4
2023-04-27T07:46:14.797Z,65.1
2023-04-27T07:47:16.123Z,64.9
2023-04-27T07:48:17.368Z,64.6
2023-04-27T07:49:18.554Z,64.2
2023-04-27T07:50:19.716Z,63.7
2023-04-27T07:51:20.895Z,63.3
2023-04-27T07:52:22.058Z,62.8
2023-04-27T07:53:23.234Z,62.2
2023-04-27T07:54:24.411Z,61.6
2023-04-27T07:55:25.566Z,61.1
2023-04-27T07:56:26.728Z,60.5
2023-04-27T07:57:28.052Z,59.9
2023-04-27T07:58:29.207Z,59.3
2023-04-27T07:59:30.371Z,58.8
2023-04-27T08:00:31.547Z,58.2
2023-04-27T08:01:32.813Z,57.7
2023-04-27T08:02:34.506Z,57.1
2023-04-27T08:03:36.855Z,56.7
2023-04-27T08:04:39.734Z,56.2
2023-04-27T08:05:42.149Z,55.8
2023-04-27T08:06:45.753Z,55.3
2023-04-27T08:07:48.831Z,54.8
2023-04-27T08:08:50.266Z,54.2
2023-04-27T08:09:51.435Z,53.7
2023-04-27T08:10:52.614Z,53.2
2023-04-27T08:11:53.780Z,52.6
2023-04-27T08:12:54.980Z,52.1
2023-04-27T08:13:56.129Z,51.6
2023-04-27T08:14:57.291Z,51
2023-04-27T08:15:58.502Z,50.6
2023-04-27T08:16:59.850Z,50.1
2023-04-27T08:18:01.031Z,49.7
2023-04-27T08:19:02.186Z,49.3
2023-04-27T08:20:03.355Z,48.9
2023-04-27T08:21:04.518Z,48.5
2023-04-27T08:22:05.684Z,48.1
2023-04-27T08:23:06.863Z,47.7
2023-04-27T08:24:08.022Z,47.3
2023-04-27T08:25:09.232Z,47
2023-04-27T08:26:10.415Z,46.6
2023-04-27T08:27:11.574Z,46.2
2023-04-27T08:28:12.795Z,45.8
2023-04-27T08:29:29.493Z,45.4
2023-04-27T08:30:30.768Z,45
2023-04-27T08:31:32.044Z,44.6
2023-04-27T08:32:33.287Z,44.2
2023-04-27T08:33:34.444Z,43.8
2023-04-27T08:34:35.620Z,45.1
2023-04-27T08:35:36.793Z,44.1
2023-04-27T08:36:37.956Z,43.4
2023-04-27T08:37:39.114Z,42.9
2023-04-27T08:38:40.281Z,42.5
2023-04-27T08:39:41.449Z,42.2
2023-04-27T08:40:42.620Z,41.9
2023-04-27T08:41:43.784Z,41.6
2023-04-27T08:42:44.953Z,41.3
2023-04-27T08:43:46.223Z,41.1
2023-04-27T08:44:47.377Z,40.8
2023-04-27T08:45:48.543Z,40.5
2023-04-27T08:46:50.070Z,40.3
2023-04-27T08:47:51.245Z,40.1
2023-04-27T08:48:52.404Z,39.8
2023-04-27T08:49:53.555Z,39.6
2023-04-27T08:50:54.731Z,39.4
2023-04-27T08:51:55.893Z,39.3
2023-04-27T08:52:57.062Z,39.1
2023-04-27T08:53:58.230Z,38.8
2023-04-27T08:54:59.445Z,38.4
2023-04-27T08:56:00.624Z,38.1
2023-04-27T08:57:01.776Z,37.8
2023-04-27T08:58:02.945Z,37.6
2023-04-27T08:59:04.141Z,37.3
2023-04-27T09:00:05.296Z,37.1
2023-04-27T09:01:06.462Z,36.9
2023-04-27T09:02:07.925Z,36.7
2023-04-27T09:03:09.601Z,36.4
2023-04-27T09:04:11.783Z,36.2
2023-04-27T09:05:13.603Z,36
2023-04-27T09:06:15.168Z,35.8
2023-04-27T09:07:16.374Z,35.6
2023-04-27T09:08:17.551Z,35.4
2023-04-27T09:09:18.710Z,35.2
2023-04-27T09:10:19.880Z,35.1
2023-04-27T09:11:21.043Z,34.9
2023-04-27T09:12:22.214Z,34.8
2023-04-27T09:13:23.383Z,34.7
2023-04-27T09:14:24.784Z,34
2023-04-27T09:15:25.992Z,34.5
2023-04-27T09:16:27.461Z,35
2023-04-27T09:17:28.881Z,35.8
2023-04-27T09:18:30.087Z,34.7
2023-04-27T09:19:31.251Z,35.5
2023-04-27T09:20:32.422Z,35.1
2023-04-27T09:21:33.582Z,34.6
2023-04-27T09:22:34.768Z,34.3
2023-04-27T09:23:35.939Z,34
2023-04-27T09:24:37.106Z,33.9
2023-04-27T09:25:38.268Z,33.8
2023-04-27T09:26:39.440Z,33.6
2023-04-27T09:27:40.603Z,33.4
2023-04-27T09:28:41.767Z,33.2
2023-04-27T09:29:43.132Z,33.1
2023-04-27T09:30:44.258Z,32.9
2023-04-27T09:31:45.502Z,32.7
2023-04-27T09:32:46.687Z,32.5
2023-04-27T09:33:47.855Z,32.3
2023-04-27T09:34:49.028Z,32.1
2023-04-27T09:35:50.600Z,32
2023-04-27T09:36:51.768Z,31.8
2023-04-27T09:37:52.935Z,31.6
2023-04-27T09:38:54.116Z,31.3
2023-04-27T09:39:55.272Z,31.2
2023-04-27T09:40:56.440Z,31.1
2023-04-27T09:41:57.601Z,31
2023-04-27T09:42:58.781Z,30.8
2023-04-27T09:43:59.939Z,30.6
2023-04-27T09:45:01.156Z,30.5
2023-04-27T09:46:02.547Z,30.5
2023-04-27T09:47:03.745Z,30.4
2023-04-27T09:48:04.981Z,30.3
2023-04-27T09:49:06.151Z,30.2
2023-04-27T09:50:07.316Z,30.1
2023-04-27T09:51:08.510Z,28.9
2023-04-27T09:52:09.721Z,29.7
2023-04-27T09:53:10.846Z,30.4
2023-04-27T09:54:12.012Z,30
2023-04-27T09:55:13.176Z,29.8
2023-04-27T09:56:14.349Z,29.6
2023-04-27T09:57:15.521Z,29.5
2023-04-27T09:58:16.686Z,29.4
2023-04-27T09:59:17.853Z,29.3
2023-04-27T10:00:19.101Z,29.2
2023-04-27T10:01:20.576Z,29.2
2023-04-27T10:02:26.583Z,29.2
2023-04-27T10:03:28.290Z,29.1
2023-04-27T10:04:30.574Z,29
2023-04-27T10:05:31.846Z,29
2023-04-27T10:06:33.033Z,28.9
2023-04-27T10:07:34.178Z,28.8
2023-04-27T10:08:35.349Z,28.7
2023-04-27T10:09:36.515Z,28.5
2023-04-27T10:10:37.685Z,28.4
2023-04-27T10:11:38.854Z,28.3
2023-04-27T10:12:40.024Z,28.1
2023-04-27T10:13:41.191Z,28
2023-04-27T10:14:42.354Z,28
2023-04-27T10:15:43.544Z,27.9
2023-04-27T10:16:44.826Z,27.9
2023-04-27T10:17:46.090Z,27.8
2023-04-27T10:18:47.249Z,27.7
2023-04-27T10:19:48.465Z,27.7
2023-04-27T10:20:49.634Z,27.6
2023-04-27T10:21:50.803Z,27.6
2023-04-27T10:22:51.968Z,27.5
2023-04-27T10:23:53.135Z,27.4
2023-04-27T10:24:54.299Z,27.3
2023-04-27T10:25:55.466Z,27.3
2023-04-27T10:26:56.634Z,27.2
2023-04-27T10:27:57.808Z,27.2
2023-04-27T10:28:58.992Z,27.1
2023-04-27T10:30:00.157Z,27.1
2023-04-27T10:31:01.442Z,26.9
2023-04-27T10:32:02.610Z,26.8
2023-04-27T10:33:03.923Z,26.7
2023-04-27T10:34:05.076Z,26.5
2023-04-27T10:35:06.257Z,26.5
2023-04-27T10:36:07.421Z,26.4
2023-04-27T10:37:08.853Z,26.3
2023-04-27T10:38:10.129Z,26.2
2023-04-27T10:39:11.568Z,26.1
2023-04-27T10:40:12.951Z,26
2023-04-27T10:41:14.173Z,25.9
2023-04-27T10:42:15.321Z,25.9
2023-04-27T10:43:16.516Z,25.7
2023-04-27T10:44:17.684Z,26.1
2023-04-27T10:45:18.850Z,26
2023-04-27T10:46:20.143Z,25.9
2023-04-27T10:47:21.382Z,25.7
2023-04-27T10:48:22.522Z,25.6
2023-04-27T10:49:23.677Z,25.5
2023-04-27T10:50:24.843Z,25.4
2023-04-27T10:51:26.007Z,25.4
2023-04-27T10:52:27.175Z,25.3
2023-04-27T10:53:28.355Z,25.3
2023-04-27T10:54:29.540Z,25.2
2023-04-27T10:55:30.700Z,25.1
2023-04-27T10:56:31.866Z,25
2023-04-27T10:57:33.036Z,24.9
2023-04-27T10:58:49.971Z,24.8
2023-04-27T10:59:51.142Z,24.7
2023-04-27T11:00:52.312Z,24.6
2023-04-27T11:01:53.625Z,24.5
2023-04-27T11:02:55.314Z,24.5
2023-04-27T11:03:56.633Z,24.3
2023-04-27T11:04:57.920Z,24.1
2023-04-27T11:05:59.060Z,23.9
2023-04-27T11:07:00.226Z,23.9
2023-04-27T11:08:01.413Z,23.8
2023-04-27T11:09:02.571Z,23.8
2023-04-27T11:10:03.732Z,23.7
2023-04-27T11:11:04.907Z,23.7
2023-04-27T11:12:06.097Z,23.6
2023-04-27T11:13:07.255Z,23.7
2023-04-27T11:14:08.432Z,23.6
2023-04-27T11:15:09.589Z,23.6
2023-04-27T11:16:10.863Z,23.4
2023-04-27T11:17:12.072Z,23.4
2023-04-27T11:18:13.242Z,23.3
2023-04-27T11:19:15.191Z,23.3
2023-04-27T11:20:16.681Z,23.2
2023-04-27T11:21:17.834Z,23.1
2023-04-27T11:22:19.027Z,23.1
2023-04-27T11:23:20.170Z,23
2023-04-27T11:24:21.371Z,23
2023-04-27T11:25:22.535Z,22.8
2023-04-27T11:26:23.704Z,22.7
2023-04-27T11:27:24.869Z,22.7
2023-04-27T11:28:26.042Z,22.6
2023-04-27T11:29:27.205Z,22.4
2023-04-27T11:30:28.386Z,22.2
2023-04-27T11:31:29.636Z,22.1
2023-04-27T11:32:30.874Z,22
2023-04-27T11:33:32.016Z,21.8
2023-04-27T11:34:33.188Z,21.6
2023-04-27T11:35:34.355Z,21.2
2023-04-27T11:36:35.518Z,21.9
2023-04-27T11:37:36.685Z,21.7
2023-04-27T11:38:38.527Z,21.6
2023-04-27T11:39:39.662Z,21.6
2023-04-27T11:40:40.835Z,21.5
2023-04-27T11:41:41.996Z,21.5
2023-04-27T11:42:43.162Z,21.5
2023-04-27T11:43:44.334Z,20.9
2023-04-27T11:44:45.499Z,21.2
2023-04-27T11:45:46.674Z,20.9
2023-04-27T11:46:47.917Z,21.2
2023-04-27T11:47:49.161Z,21.5
2023-04-27T11:48:50.495Z,22.4
2023-04-27T11:49:51.660Z,21
2023-04-27T11:50:52.828Z,21.9
2023-04-27T11:51:53.988Z,21.7
2023-04-27T11:52:55.155Z,21.6
2023-04-27T11:53:56.324Z,21.5
2023-04-27T11:54:57.519Z,20.7
2023-04-27T11:55:58.684Z,21.2
2023-04-27T11:56:59.851Z,21.7
2023-04-27T11:58:01.026Z,21.5
2023-04-27T11:59:02.198Z,21.5
2023-04-27T12:00:03.374Z,21.5
2023-04-27T12:01:04.565Z,21.4
2023-04-27T12:02:05.781Z,21.4
2023-04-27T12:03:07.545Z,21.4
2023-04-27T12:04:09.556Z,21.4
2023-04-27T12:05:11.559Z,20.2
2023-04-27T12:06:34.244Z,20.9
2023-04-27T12:07:35.590Z,21.8
2023-04-27T12:08:36.754Z,21.6
2023-04-27T12:09:37.922Z,21.5
2023-04-27T12:10:39.164Z,21.4
2023-04-27T12:11:40.347Z,21.3
2023-04-27T12:12:41.517Z,20.5
2023-04-27T12:13:42.693Z,20.7
2023-04-27T12:14:43.843Z,21
2023-04-27T12:15:45.013Z,21.2
2023-04-27T12:16:46.200Z,21.5
2023-04-27T12:17:47.558Z,22
2023-04-27T12:18:48.722Z,21.5
2023-04-27T12:19:49.869Z,21.6
2023-04-27T12:20:51.043Z,21.5
2023-04-27T12:21:52.203Z,21.4
2023-04-27T12:22:53.365Z,21.1
2023-04-27T12:23:54.537Z,21.2
2023-04-27T12:24:55.703Z,20.7
2023-04-27T12:25:56.872Z,21
2023-04-27T12:26:58.039Z,21.3
2023-04-27T12:27:59.198Z,22.1
2023-04-27T12:29:00.370Z,21.6
2023-04-27T12:30:01.537Z,21.9
2023-04-27T12:31:02.760Z,21.7
2023-04-27T12:32:03.912Z,21.7
2023-04-27T12:33:05.232Z,21.7
2023-04-27T12:34:06.403Z,21.6
2023-04-27T12:35:07.630Z,21.6
2023-04-27T12:36:08.796Z,21.4
2023-04-27T12:37:09.962Z,21.4
2023-04-27T12:38:11.133Z,21.5
2023-04-27T12:39:12.309Z,21.5
2023-04-27T12:40:13.912Z,21.4
2023-04-27T12:41:15.080Z,21.4
2023-04-27T12:42:16.237Z,21.3
2023-04-27T12:43:17.454Z,21.3
2023-04-27T12:44:18.614Z,21.3
2023-04-27T12:45:19.783Z,20.9
2023-04-27T12:46:21.001Z,21.2
2023-04-27T12:48:04.091Z,21.2
2023-04-27T12:49:05.573Z,20.6
2023-04-27T12:50:06.760Z,21.1
2023-04-27T12:51:07.910Z,21.6
2023-04-27T12:52:09.081Z,21.5
2023-04-27T12:53:10.342Z,21.3
2023-04-27T12:54:11.675Z,21.2
2023-04-27T12:55:33.474Z,21.2
2023-04-27T12:56:35.413Z,21.3
2023-04-27T12:57:36.617Z,21.3
2023-04-27T12:58:37.749Z,21.2
2023-04-27T12:59:38.975Z,21.1
2023-04-27T13:00:40.108Z,21.1
2023-04-27T13:01:41.324Z,21.1
2023-04-27T13:02:42.928Z,21
2023-04-27T13:03:44.928Z,21
2023-04-27T13:04:46.778Z,20.9
2023-04-27T13:05:48.101Z,20.8
2023-04-27T13:06:49.242Z,20.8
2023-04-27T13:07:50.410Z,20.9
2023-04-27T13:08:51.586Z,20.9
2023-04-27T13:09:52.741Z,20.9
2023-04-27T13:10:53.949Z,20.9
2023-04-27T13:11:55.081Z,20.8
2023-04-27T13:12:56.246Z,20.9
2023-04-27T13:13:57.416Z,20.8
2023-04-27T13:14:58.586Z,20.8
2023-04-27T13:15:59.842Z,20.8
2023-04-27T13:17:01.013Z,20.8
2023-04-27T13:18:02.345Z,20.9
2023-04-27T13:19:03.498Z,20.8
2023-04-27T13:20:04.662Z,20.9
2023-04-27T13:21:05.844Z,20.9
2023-04-27T13:22:06.996Z,20.9
2023-04-27T13:23:08.163Z,20.9
2023-04-27T13:24:09.325Z,20.9
2023-04-27T13:25:10.493Z,20.9
2023-04-27T13:26:11.662Z,20.9
2023-04-27T13:27:12.829Z,20.9
2023-04-27T13:28:13.999Z,20.9
2023-04-27T13:29:15.167Z,21
2023-04-27T13:30:16.330Z,21
2023-04-27T13:31:17.666Z,21.1
2023-04-27T13:32:18.811Z,21
2023-04-27T13:33:24.562Z,21
2023-04-27T13:34:25.735Z,21.1
2023-04-27T13:35:26.898Z,21.1
2023-04-27T13:36:28.131Z,21.2
2023-04-27T13:37:29.335Z,21.2
2023-04-27T13:38:30.504Z,21.2
2023-04-27T13:39:31.670Z,21.2
2023-04-27T13:40:32.837Z,21.2
2023-04-27T13:41:34.223Z,21.2
2023-04-27T13:42:35.378Z,21.2